Clam Gulch, AK (99568)

3:27 PM AKST on February 12, 2016 (GMT -0900)
mile 16.05 Oilwell Rd. | | Change Station
CLOSE
Current Station
Personal Weather Station
Location: Ninilchik, AK
Elevation: 1161 ft
Nearby Weather Stations

Elev 1161 ft 60.02 °N, 151.33 °W | Updated 31 seconds ago

Mostly Cloudy
Mostly Cloudy
34.0 °F
Feels Like 24 °F
N
14.1
Wind Variable Wind from East

Today
High -- | Low -- °F
--% Chance of Precip.
Yesterday
High -- | Low -- °F
Precip. -- in
Pressure 29.25 in
Visibility 10.0 miles
Clouds Mostly Cloudy 6500 ft
Windchill 24 °F
Dew Point 26 °F
Humidity 71%
Rainfall 0.00 in
Snow Depth Not available.
8:52 AM 5:47 PM
Waxing Crescent, 25% visible
METAR PASX 130016Z AUTO 05009KT 10SM BKN065 06/M03 A2925 RMK AO1
Pressure 29.25 in
Visibility 10.0 miles
Clouds Mostly Cloudy 6500 ft
Windchill 24 °F
Dew Point 26 °F
Humidity 71%
Rainfall 0.00 in
Snow Depth Not available.
8:52 AM 5:47 PM
Waxing Crescent, 25% visible
METAR PASX 130016Z AUTO 05009KT 10SM BKN065 06/M03 A2925 RMK AO1

10-Day Weather Forecast

Almanac

Astronomy

Feb. 12, 2016 Rise Set
Actual Time
Civil Twilight
Nautical Twilight
Astronomical Twilight
Moon
Length of Visible Light
Length of Day
Tomorrow will be .
, % of the Moon is Illuminated

Today's Extremes

State Highs State Lows

Community

WunderPhotos

Upload Photos

1,892,439 photos uploaded!

WunderBlog® & News

Nearby

Air Quality

  Air Quality AQ Index Pollutant
Not available.

Snow Depth

Station Depth Elevation

Earthquake Activity

City Distance Mag. Time & Date
Minimum magnitude displayed is 2.5.

Coastal Water Temperatures

Place Temperature

Stations

Nearby Weather Stations

Station Location Temp. Windchill Dew Point Humidity Wind Precip. Elev Updated Type
                   

Watches & Warnings

There are currently no watches in effect.